Time;durP1;ratioP1;P1;durP2;ratioP2;P2;SDS_P1;SDS_P2;PMS_P1;PMS_P2;Temp;Humidity;BMP_temperature;BMP_pressure;BME280_temperature;BME280_humidity;BME280_pressure;Samples;Min_cycle;Max_cycle;Signal;HPM_P1;HPM_P2
2022/11/23 08:07:33;;;;;;;6.30;1.67;;;;;;;8.67;67.31;95292.22;1448158;27;18840179;-62
2022/11/23 08:08:38;;;;;;;11.23;2.13;;;;;;;8.71;66.76;95292.91;2111514;28;20247;-62
2022/11/23 08:09:39;;;;;;;11.27;2.42;;;;;;;9.08;65.81;95291.56;2088741;28;20308;-62
2022/11/23 08:10:41;;;;;;;8.38;2.22;;;;;;;9.50;64.75;95283.81;2081041;28;20200;-62
2022/11/23 08:11:50;;;;;;;14.40;2.05;;;;;;;10.26;63.25;95284.25;2081373;28;20641;-62
2022/11/23 08:12:51;;;;;;;15.50;2.15;;;;;;;10.58;62.07;95289.16;2082296;28;20546;-62
2022/11/23 08:13:56;;;;;;;4.90;1.52;;;;;;;10.74;60.95;95278.53;2079311;28;20280;-63
2022/11/23 08:14:57;;;;;;;14.02;2.40;;;;;;;10.78;60.08;95285.22;2082369;28;20331;-63
2022/11/23 08:16:00;;;;;;;6.70;2.03;;;;;;;10.94;59.26;95278.03;2082328;28;20817;-63
2022/11/23 08:17:01;;;;;;;5.85;1.60;;;;;;;11.39;58.99;95277.56;2082203;28;20277;-62
2022/11/23 08:18:03;;;;;;;14.35;2.22;;;;;;;10.91;59.07;95269.56;2081112;28;20281;-63
2022/11/23 08:19:05;;;;;;;11.32;1.80;;;;;;;11.33;58.82;95279.78;2080676;28;20213;-62
2022/11/23 08:20:07;;;;;;;6.93;2.47;;;;;;;11.77;57.71;95286.28;2083227;28;20208;-63
2022/11/23 08:21:08;;;;;;;18.20;2.28;;;;;;;11.80;57.61;95290.47;2083010;28;20207;-63
2022/11/23 08:22:09;;;;;;;10.25;1.88;;;;;;;12.02;56.86;95287.16;2083155;28;20198;-63
2022/11/23 08:23:16;;;;;;;10.27;1.90;;;;;;;12.35;55.55;95283.88;2083340;28;20237;-63
2022/11/23 08:24:17;;;;;;;8.25;2.58;;;;;;;12.61;55.36;95283.75;2082011;28;20228;-63
2022/11/23 08:25:19;;;;;;;6.20;2.22;;;;;;;12.78;55.25;95279.84;2083347;28;20208;-63
2022/11/23 08:26:20;;;;;;;13.35;2.00;;;;;;;12.47;55.24;95283.91;2082326;28;20209;-63
2022/11/23 08:27:22;;;;;;;7.57;1.95;;;;;;;12.28;56.15;95281.81;2082553;28;20221;-63
2022/11/23 08:28:26;;;;;;;11.27;1.80;;;;;;;12.22;56.48;95289.16;2083626;28;20708;-63
2022/11/23 08:29:28;;;;;;;9.43;1.90;;;;;;;12.40;55.85;95283.53;2087003;28;20224;-63
2022/11/23 08:30:31;;;;;;;9.00;2.05;;;;;;;13.15;53.55;95291.97;2088306;28;20233;-63
2022/11/23 08:31:33;;;;;;;10.52;2.25;;;;;;;12.78;53.86;95292.13;2089732;28;20604;-63
2022/11/23 08:32:34;;;;;;;15.60;3.13;;;;;;;12.63;54.42;95281.00;2090129;28;20212;-63
2022/11/23 08:33:40;;;;;;;10.30;2.75;;;;;;;12.88;54.13;95286.06;2089613;28;20196;-63
2022/11/23 08:34:43;;;;;;;8.27;2.00;;;;;;;12.85;54.18;95290.69;2083630;28;20408;-63
2022/11/23 08:35:44;;;;;;;9.20;1.80;;;;;;;12.82;54.10;95291.75;2082304;28;20205;-63
2022/11/23 08:36:47;;;;;;;7.30;2.40;;;;;;;12.97;54.07;95295.03;2083526;28;20197;-63
2022/11/23 08:37:48;;;;;;;10.02;1.40;;;;;;;12.84;54.52;95276.78;2082874;28;20209;-63
2022/11/23 08:38:53;;;;;;;8.40;1.70;;;;;;;12.52;55.06;95300.13;2081494;28;20202;-63
2022/11/23 08:39:55;;;;;;;10.70;1.52;;;;;;;13.49;53.22;95286.78;2083425;28;20541;-63
2022/11/23 08:41:01;;;;;;;4.78;1.75;;;;;;;13.05;53.60;95290.03;2083664;28;20297;-64
2022/11/23 08:42:03;;;;;;;5.03;1.60;;;;;;;13.64;52.45;95287.38;2081449;28;20208;-63
2022/11/23 08:43:05;;;;;;;5.57;1.65;;;;;;;13.10;53.18;95273.13;2081613;28;20265;-63
2022/11/23 08:44:11;;;;;;;7.40;1.65;;;;;;;12.92;52.49;95284.06;2081726;28;20198;-63
2022/11/23 08:45:12;;;;;;;4.65;1.35;;;;;;;11.94;54.90;95274.63;2082820;28;21105;-64
2022/11/23 08:46:14;;;;;;;10.13;1.80;;;;;;;12.89;54.42;95282.50;2081636;28;20205;-63
2022/11/23 08:47:16;;;;;;;6.45;1.60;;;;;;;12.79;54.39;95285.94;2081710;28;20299;-63
2022/11/23 08:48:17;;;;;;;5.78;1.60;;;;;;;13.12;53.63;95284.34;2080948;28;20289;-63
2022/11/23 08:49:21;;;;;;;7.45;1.67;;;;;;;13.97;51.44;95285.66;2086172;28;20259;-63
2022/11/23 08:50:23;;;;;;;6.57;1.50;;;;;;;13.84;51.62;95280.53;2091019;28;20666;-63
2022/11/23 08:51:24;;;;;;;7.97;2.17;;;;;;;13.49;52.57;95284.97;2089281;28;20254;-63
2022/11/23 08:52:26;;;;;;;4.15;1.75;;;;;;;13.71;51.72;95292.00;2089223;28;20201;-63
2022/11/23 08:53:27;;;;;;;7.20;1.42;;;;;;;14.48;50.08;95285.00;2091390;28;20201;-63
2022/11/23 08:54:30;;;;;;;8.07;2.00;;;;;;;14.61;49.96;95274.31;2085768;28;20233;-64
2022/11/23 08:55:32;;;;;;;17.27;2.20;;;;;;;14.56;49.87;95287.00;2082124;28;20255;-63
2022/11/23 08:56:36;;;;;;;6.10;1.58;;;;;;;14.82;49.62;95282.25;2081749;28;20198;-63
2022/11/23 08:57:38;;;;;;;5.70;1.40;;;;;;;13.79;51.17;95280.06;2080298;28;20285;-64
2022/11/23 08:58:39;;;;;;;12.60;1.58;;;;;;;13.63;51.56;95289.13;2082193;28;20295;-63
2022/11/23 08:59:40;;;;;;;10.07;1.67;;;;;;;13.01;51.42;95283.34;2083702;28;20248;-64
2022/11/23 09:00:42;;;;;;;6.40;2.28;;;;;;;13.32;52.19;95286.25;2082395;28;20205;-63
2022/11/23 09:01:44;;;;;;;12.25;2.40;;;;;;;13.31;51.65;95278.53;2082871;28;20285;-63
2022/11/23 09:02:45;;;;;;;4.50;1.27;;;;;;;13.01;53.86;95274.66;2082646;28;20773;-63
2022/11/23 09:03:53;;;;;;;5.00;1.80;;;;;;;12.73;53.03;95288.06;2081984;28;20263;-63
2022/11/23 09:04:55;;;;;;;4.72;1.20;;;;;;;12.90;53.08;95286.78;2082261;28;20232;-63
2022/11/23 09:05:58;;;;;;;9.02;1.48;;;;;;;13.84;51.07;95291.00;2082661;28;20620;-62
2022/11/23 09:07:02;;;;;;;9.32;2.08;;;;;;;14.36;50.20;95286.84;2084714;28;20247;-63
2022/11/23 09:08:04;;;;;;;9.93;1.30;;;;;;;12.85;51.95;95288.94;2089880;28;20232;-62
2022/11/23 09:09:05;;;;;;;13.05;2.15;;;;;;;12.88;52.52;95288.69;2091653;28;20197;-63
2022/11/23 09:10:07;;;;;;;6.47;1.55;;;;;;;13.37;51.25;95291.19;2097301;28;20298;-63
2022/11/23 09:11:13;;;;;;;7.53;1.85;;;;;;;13.47;50.39;95283.41;2096462;28;20329;-63
2022/11/23 09:12:17;;;;;;;10.32;1.67;;;;;;;13.34;50.64;95283.50;2097006;28;20211;-62
2022/11/23 09:13:19;;;;;;;6.05;1.48;;;;;;;14.02;50.01;95263.31;2098085;28;20202;-63
2022/11/23 09:14:22;;;;;;;5.10;1.48;;;;;;;13.12;51.38;95276.47;2092843;28;20216;-63
2022/11/23 09:15:24;;;;;;;8.95;1.83;;;;;;;12.09;54.26;95288.41;2090006;28;20268;-62
2022/11/23 09:16:25;;;;;;;6.88;1.33;;;;;;;12.71;53.05;95289.97;2091731;28;20570;-62
2022/11/23 09:17:34;;;;;;;6.03;1.55;;;;;;;11.39;55.08;95288.03;2081954;28;20839;-64
2022/11/23 09:18:36;;;;;;;5.35;1.90;;;;;;;11.23;57.04;95293.47;2078239;28;20212;-63
2022/11/23 09:19:38;;;;;;;6.60;1.52;;;;;;;12.50;54.35;95284.53;2084229;28;20228;-63
2022/11/23 09:20:39;;;;;;;8.85;1.77;;;;;;;13.28;52.84;95276.97;2077651;28;20202;-63
2022/11/23 09:21:42;;;;;;;5.13;1.88;;;;;;;12.74;53.83;95283.66;2077580;28;20219;-63
2022/11/23 09:22:49;;;;;;;6.32;1.45;;;;;;;12.36;54.59;95285.53;2085642;28;20303;-63
2022/11/23 09:23:51;;;;;;;9.32;2.05;;;;;;;13.27;51.84;95279.69;2083935;28;20882;-63
2022/11/23 09:24:52;;;;;;;8.25;1.48;;;;;;;12.50;52.60;95276.69;2087017;28;20231;-64
2022/11/23 09:26:00;;;;;;;12.20;1.80;;;;;;;13.54;50.99;95282.00;2085841;28;20206;-63
2022/11/23 09:27:01;;;;;;;5.63;1.52;;;;;;;11.87;54.50;95283.84;2085045;28;20210;-63
2022/11/23 09:28:03;;;;;;;4.10;1.35;;;;;;;11.45;55.72;95271.06;2084900;28;20255;-64
2022/11/23 09:29:05;;;;;;;9.32;1.63;;;;;;;11.42;55.67;95286.97;2083062;28;20782;-63
2022/11/23 09:30:10;;;;;;;5.07;1.80;;;;;;;12.60;54.08;95270.78;2084908;28;20197;-63
2022/11/23 09:31:12;;;;;;;5.60;1.35;;;;;;;13.51;51.64;95293.56;2085192;28;20199;-64
2022/11/23 09:32:13;;;;;;;5.15;1.52;;;;;;;14.19;49.93;95285.59;2085207;28;20210;-63
2022/11/23 09:33:15;;;;;;;10.68;2.10;;;;;;;13.16;51.21;95280.53;2085675;28;20233;-63
2022/11/23 09:34:16;;;;;;;7.93;1.40;;;;;;;13.50;51.91;95281.41;2085514;28;20215;-62
2022/11/23 09:35:18;;;;;;;7.30;1.45;;;;;;;12.83;52.43;95271.66;2075361;28;20198;-63
2022/11/23 09:36:23;;;;;;;7.43;1.50;;;;;;;12.86;52.32;95289.75;2078152;28;20571;-64
2022/11/23 09:37:24;;;;;;;10.93;1.55;;;;;;;13.12;52.44;95279.09;2082737;28;20211;-63
2022/11/23 09:38:26;;;;;;;11.88;1.63;;;;;;;12.71;51.63;95286.53;2085125;28;20202;-64
2022/11/23 09:39:51;;;;;;;7.95;2.03;;;;;;;12.80;52.98;95290.22;2092135;28;20244;-63
2022/11/23 09:41:12;;;;;;;9.57;1.83;;;;;;;13.18;52.23;95292.56;2092840;28;20405;-63
2022/11/23 09:42:44;;;;;;;4.35;1.90;;;;;;;14.82;48.62;95292.75;2092751;28;20852;-63
2022/11/23 09:44:10;;;;;;;6.47;1.80;;;;;;;14.83;47.72;95304.94;2093988;28;20218;-63
2022/11/23 09:45:36;;;;;;;6.93;2.22;;;;;;;14.72;48.25;95310.25;2086562;28;20223;-63
2022/11/23 09:47:06;;;;;;;7.05;1.75;;;;;;;14.92;47.51;95297.22;2077590;28;20646;-63
2022/11/23 09:48:26;;;;;;;5.38;1.55;;;;;;;13.81;48.87;95307.84;2080026;28;20215;-62
2022/11/23 09:49:44;;;;;;;10.07;1.70;;;;;;;13.08;50.85;95307.31;2088239;28;20224;-63
2022/11/23 09:50:47;;;;;;;8.30;1.60;;;;;;;13.04;51.35;95305.91;2090769;28;20233;-63
2022/11/23 09:51:50;;;;;;;5.05;1.85;;;;;;;13.55;50.30;95288.91;2093803;28;20206;-63
2022/11/23 09:52:52;;;;;;;6.97;1.80;;;;;;;13.74;49.91;95295.31;2092859;28;20607;-63
2022/11/23 09:54:09;;;;;;;8.90;1.50;;;;;;;13.19;51.02;95299.47;2091924;28;20254;-63
2022/11/23 09:55:23;;;;;;;5.85;1.50;;;;;;;13.29;50.50;95289.09;2083300;28;20315;-62
2022/11/23 09:56:29;;;;;;;5.63;1.92;;;;;;;13.97;49.77;95294.34;2083448;28;20196;-63
2022/11/23 09:57:33;;;;;;;4.95;1.75;;;;;;;14.96;48.28;95286.34;2084503;28;20208;-62
2022/11/23 09:58:39;;;;;;;5.25;2.05;;;;;;;15.18;47.04;95295.91;2083138;28;20300;-63
2022/11/23 09:59:46;;;;;;;5.40;1.85;;;;;;;14.68;47.90;95287.81;2082733;28;20221;-63
2022/11/23 10:00:50;;;;;;;7.65;1.80;;;;;;;13.86;49.09;95289.97;2084213;28;20206;-62
2022/11/23 10:01:51;;;;;;;12.52;1.73;;;;;;;15.26;47.47;95284.72;2083956;28;20199;-63
2022/11/23 10:02:57;;;;;;;3.90;1.77;;;;;;;15.18;47.34;95295.91;2081894;28;20217;-63
2022/11/23 10:03:59;;;;;;;6.32;1.80;;;;;;;14.73;47.92;95284.78;2077924;28;20198;-63
2022/11/23 10:05:02;;;;;;;7.57;1.75;;;;;;;14.90;47.30;95281.59;2078063;28;20239;-63
2022/11/23 10:06:12;;;;;;;6.43;1.60;;;;;;;13.67;49.91;95285.31;2084797;28;20562;-63
2022/11/23 10:07:21;;;;;;;6.80;2.10;;;;;;;14.63;47.56;95292.59;2084712;28;20595;-63
2022/11/23 10:08:55;;;;;;;4.75;1.65;;;;;;;14.32;48.05;95284.56;2084348;28;20381;-63
2022/11/23 10:10:11;;;;;;;7.40;1.92;;;;;;;14.00;49.16;95288.00;2060051;28;20290;-63
2022/11/23 10:11:22;;;;;;;5.32;1.30;;;;;;;13.96;49.21;95284.78;2084565;28;20209;-63
2022/11/23 10:12:48;;;;;;;4.50;1.40;;;;;;;13.99;48.53;95278.47;2085581;28;20291;-63
2022/11/23 10:14:18;;;;;;;6.95;1.55;;;;;;;14.16;49.77;95275.31;2085582;28;20225;-64
2022/11/23 10:15:27;;;;;;;11.63;1.70;;;;;;;16.05;45.77;95272.72;2092549;28;20561;-63
2022/11/23 10:16:43;;;;;;;12.40;1.77;;;;;;;15.81;44.84;95267.78;2092752;28;20202;-63
2022/11/23 10:18:01;;;;;;;6.15;2.00;;;;;;;16.55;43.59;95268.31;2092313;28;20220;-63
2022/11/23 10:19:17;;;;;;;5.43;1.55;;;;;;;16.43;43.80;95271.09;2096247;28;20637;-63
2022/11/23 10:20:33;;;;;;;10.65;2.20;;;;;;;14.76;47.88;95271.41;2095863;28;20285;-63
2022/11/23 10:21:37;;;;;;;3.22;1.17;;;;;;;15.76;45.24;95275.25;2090601;28;20334;-63
2022/11/23 10:22:57;;;;;;;7.80;1.98;;;;;;;14.82;46.30;95276.16;2090664;28;20201;-64
2022/11/23 10:24:18;;;;;;;7.95;1.95;;;;;;;15.62;44.51;95264.09;2090739;28;20204;-63
2022/11/23 10:25:21;;;;;;;4.10;1.55;;;;;;;15.97;44.29;95277.81;2099863;28;20203;-63
2022/11/23 10:26:31;;;;;;;5.60;2.45;;;;;;;15.62;44.61;95272.00;2098894;28;20248;-63
2022/11/23 10:27:32;;;;;;;5.63;1.48;;;;;;;16.21;43.94;95276.59;2093072;28;20372;-63
2022/11/23 10:28:35;;;;;;;4.80;1.70;;;;;;;15.97;43.98;95280.44;2092808;28;20222;-64
2022/11/23 10:29:37;;;;;;;5.85;1.17;;;;;;;14.97;46.04;95277.50;2092793;28;20231;-63
2022/11/23 10:30:39;;;;;;;9.05;1.70;;;;;;;14.85;45.91;95279.38;2091935;28;20224;-63
2022/11/23 10:31:46;;;;;;;8.90;1.90;;;;;;;15.31;45.32;95279.06;2093476;28;20214;-62
2022/11/23 10:33:04;;;;;;;5.93;2.40;;;;;;;15.58;45.33;95280.28;2092819;28;20203;-63
2022/11/23 10:34:11;;;;;;;11.30;2.67;;;;;;;16.67;43.56;95271.63;2094415;28;20222;-63
2022/11/23 10:35:26;;;;;;;9.05;2.80;;;;;;;15.91;44.41;95267.81;2092143;28;20199;-64
2022/11/23 10:36:27;;;;;;;7.05;2.10;;;;;;;16.13;44.12;95275.47;2092359;28;20252;-63
2022/11/23 10:37:30;;;;;;;7.32;1.98;;;;;;;16.38;43.38;95268.03;2092021;28;20248;-63
2022/11/23 10:38:33;;;;;;;7.30;1.88;;;;;;;16.39;43.36;95274.97;2092813;28;20291;-63
2022/11/23 10:39:34;;;;;;;6.47;1.85;;;;;;;16.62;42.86;95261.50;2091150;28;20926;-63
2022/11/23 10:40:39;;;;;;;7.50;1.80;;;;;;;17.16;42.01;95219.69;2091138;28;20287;-64
2022/11/23 10:41:43;;;;;;;8.00;2.00;;;;;;;14.68;45.65;95265.00;2093582;28;20203;-64
2022/11/23 10:42:52;;;;;;;8.93;2.45;;;;;;;16.00;44.61;95264.38;2092483;28;20204;-63
2022/11/23 10:43:57;;;;;;;8.63;2.10;;;;;;;16.32;43.63;95261.50;2092316;28;20201;-63
2022/11/23 10:45:00;;;;;;;5.57;1.75;;;;;;;16.90;42.86;95266.88;2092773;28;20229;-63
2022/11/23 10:46:32;;;;;;;4.78;1.88;;;;;;;16.80;42.69;95259.00;2092936;28;20229;-63
2022/11/23 10:47:38;;;;;;;7.55;1.70;;;;;;;16.96;42.59;95263.72;2092589;28;20809;-63
2022/11/23 10:48:39;;;;;;;5.05;2.05;;;;;;;16.59;43.00;95257.34;2092642;28;20818;-63
2022/11/23 10:49:56;;;;;;;6.47;1.90;;;;;;;16.62;43.04;95257.06;2092731;28;20225;-63
2022/11/23 10:51:15;;;;;;;9.98;2.13;;;;;;;16.46;42.76;95230.47;2093038;28;20245;-63
2022/11/23 10:52:32;;;;;;;5.88;1.75;;;;;;;16.23;43.59;95264.97;2092930;28;20213;-63
2022/11/23 10:53:33;;;;;;;6.18;1.48;;;;;;;15.42;45.63;95267.63;2092797;28;20226;-63
2022/11/23 10:54:51;;;;;;;3.05;1.33;;;;;;;15.32;44.93;95257.06;2091901;28;20233;-63
2022/11/23 10:55:56;;;;;;;12.30;1.80;;;;;;;16.08;43.56;95261.88;2092296;28;20293;-63
2022/11/23 10:57:00;;;;;;;12.07;1.90;;;;;;;16.11;43.30;95259.00;2092035;28;20268;-63
2022/11/23 10:58:02;;;;;;;4.75;1.70;;;;;;;15.98;44.17;95258.41;2093441;28;20233;-63
2022/11/23 10:59:03;;;;;;;9.07;1.77;;;;;;;16.20;43.97;95251.25;2091885;28;20197;-63
2022/11/23 11:00:08;;;;;;;4.60;1.70;;;;;;;15.47;44.62;95263.63;2091471;28;20626;-63
2022/11/23 11:01:24;;;;;;;13.68;1.60;;;;;;;16.41;43.29;95261.66;2091118;28;20337;-62
2022/11/23 11:02:26;;;;;;;16.67;1.80;;;;;;;16.75;42.10;95261.25;2091834;28;20260;-63
2022/11/23 11:03:34;;;;;;;6.65;2.20;;;;;;;15.61;44.55;95251.91;2094044;28;20202;-63
2022/11/23 11:04:35;;;;;;;10.18;2.30;;;;;;;16.13;43.56;95261.50;2091689;28;20247;-63
2022/11/23 11:05:38;;;;;;;6.78;2.05;;;;;;;16.56;43.13;95255.00;2091588;28;20277;-62
2022/11/23 11:07:21;;;;;;;12.50;2.22;;;;;;;15.43;44.14;95253.53;2093126;28;20799;-62
2022/11/23 11:08:28;;;;;;;7.22;1.80;;;;;;;14.97;45.04;95258.25;2092914;28;20195;-63
2022/11/23 11:09:32;;;;;;;4.15;2.17;;;;;;;15.79;44.75;95246.84;2092296;28;20468;-63
2022/11/23 11:10:57;;;;;;;8.43;1.98;;;;;;;15.88;44.02;95250.50;2091573;28;20209;-63
2022/11/23 11:11:59;;;;;;;3.35;1.08;;;;;;;15.37;44.72;95252.25;2092226;28;20788;-62
2022/11/23 11:13:00;;;;;;;2.97;1.10;;;;;;;15.21;44.52;95251.88;2090749;28;20672;-63
2022/11/23 11:14:15;;;;;;;5.32;1.88;;;;;;;14.34;45.53;95251.16;2093120;28;20285;-63
2022/11/23 11:15:17;;;;;;;9.93;1.85;;;;;;;15.09;45.39;95228.31;2091573;28;20252;-62
2022/11/23 11:16:33;;;;;;;9.23;1.60;;;;;;;15.08;44.30;95238.97;2091383;28;20234;-62
2022/11/23 11:17:36;;;;;;;5.60;1.35;;;;;;;14.52;45.36;95230.44;2091235;28;20297;-63
2022/11/23 11:18:38;;;;;;;2.65;1.20;;;;;;;15.09;45.09;95238.00;2091517;28;20194;-63
2022/11/23 11:19:39;;;;;;;5.68;1.58;;;;;;;14.19;45.82;95251.47;2090420;28;20229;-61
2022/11/23 11:20:44;;;;;;;9.00;2.10;;;;;;;13.63;48.04;95233.22;2092627;28;20210;-63
2022/11/23 11:21:46;;;;;;;7.30;1.75;;;;;;;13.87;47.21;95226.00;2091397;28;20882;-62
2022/11/23 11:22:48;;;;;;;9.00;3.40;;;;;;;14.40;46.65;95245.41;2092361;28;20226;-61
2022/11/23 11:23:58;;;;;;;4.22;1.88;;;;;;;14.79;46.06;95243.09;2093166;28;20217;-62
2022/11/23 11:25:03;;;;;;;8.23;3.50;;;;;;;13.81;46.74;95237.00;2091331;28;20235;-61
2022/11/23 11:26:20;;;;;;;4.72;1.77;;;;;;;13.14;48.41;95220.38;2091415;28;20207;-62
2022/11/23 11:27:24;;;;;;;11.57;2.47;;;;;;;14.87;46.27;95231.94;2091976;28;20201;-62
2022/11/23 11:28:47;;;;;;;4.10;1.23;;;;;;;14.40;45.70;95226.19;2092147;28;20284;-62
2022/11/23 11:29:58;;;;;;;10.60;1.65;;;;;;;13.75;46.27;95227.03;2092348;28;20225;-61
2022/11/23 11:31:17;;;;;;;4.35;1.40;;;;;;;13.63;47.61;95234.06;2093090;28;20196;-63
2022/11/23 11:32:37;;;;;;;7.63;1.80;;;;;;;14.60;46.06;95227.16;2090157;28;20284;-63
2022/11/23 11:34:04;;;;;;;7.57;1.52;;;;;;;14.28;46.86;95228.84;2093312;28;20297;-63
2022/11/23 11:35:12;;;;;;;5.82;1.40;;;;;;;14.60;46.57;95237.66;2092196;28;20240;-63
2022/11/23 11:36:24;;;;;;;3.63;1.25;;;;;;;13.07;49.15;95224.41;2091673;28;20224;-64
2022/11/23 11:37:33;;;;;;;4.43;1.65;;;;;;;12.24;50.66;95223.66;2092405;28;20194;-66
2022/11/23 11:38:36;;;;;;;3.55;1.60;;;;;;;13.49;49.22;95221.22;2092849;28;20286;-64
2022/11/23 11:39:45;;;;;;;3.92;1.20;;;;;;;13.32;50.16;95223.34;2091372;28;20222;-64
2022/11/23 11:40:49;;;;;;;2.63;1.20;;;;;;;12.90;50.43;95217.88;2092185;28;20193;-64
2022/11/23 11:41:53;;;;;;;7.38;1.45;;;;;;;14.41;47.42;95217.34;2091604;28;20220;-64
2022/11/23 11:43:20;;;;;;;7.03;1.75;;;;;;;14.44;46.62;95217.13;2092058;28;20213;-64
2022/11/23 11:44:32;;;;;;;12.38;1.88;;;;;;;14.99;45.07;95216.91;2091882;28;20573;-64
2022/11/23 11:45:41;;;;;;;7.78;1.60;;;;;;;15.28;45.38;95217.03;2092610;28;20203;-64
2022/11/23 11:47:24;;;;;;;4.90;1.13;;;;;;;12.85;48.67;95201.63;2092146;28;20217;-65
2022/11/23 11:48:38;;;;;;;9.68;1.60;;;;;;;12.57;49.55;95201.97;2096704;28;20350;-64
2022/11/23 11:49:44;;;;;;;4.68;1.42;;;;;;;12.20;49.64;95206.50;2095914;28;20335;-67
2022/11/23 11:50:51;;;;;;;10.10;1.85;;;;;;;12.31;50.04;95214.38;2100465;28;20647;-67
2022/11/23 11:52:01;;;;;;;5.78;1.40;;;;;;;13.01;48.74;95196.06;2099073;28;20279;-67
2022/11/23 11:53:07;;;;;;;5.22;1.20;;;;;;;13.65;48.02;95207.69;2092395;28;20204;-66
2022/11/23 11:54:35;;;;;;;6.10;1.63;;;;;;;13.94;46.79;95209.78;2091707;28;20201;-66
2022/11/23 11:55:53;;;;;;;7.72;1.60;;;;;;;13.21;47.61;95208.44;2094702;28;20208;-66
2022/11/23 11:57:33;;;;;;;8.82;1.90;;;;;;;13.83;47.11;95206.22;2089545;28;20211;-66
2022/11/23 11:58:36;;;;;;;12.75;1.63;;;;;;;13.28;48.24;95203.56;2091032;28;20700;-65
2022/11/23 11:59:47;;;;;;;6.07;1.60;;;;;;;13.32;48.51;95207.63;2090815;28;20261;-66
2022/11/23 12:00:50;;;;;;;9.95;2.00;;;;;;;12.92;49.11;95204.63;2091714;28;20204;-66
2022/11/23 12:02:19;;;;;;;4.60;1.67;;;;;;;13.96;48.15;95200.00;2093435;28;20288;-66
2022/11/23 12:03:36;;;;;;;5.70;1.90;;;;;;;13.84;48.33;95193.94;2092321;28;20261;-67
2022/11/23 12:04:47;;;;;;;5.20;1.65;;;;;;;14.15;47.17;95187.03;2090702;28;20221;-66
2022/11/23 12:05:51;;;;;;;5.13;1.40;;;;;;;12.47;50.57;95197.53;2093088;28;20288;-67
2022/11/23 12:07:14;;;;;;;5.88;1.33;;;;;;;13.23;48.89;95188.19;2092147;28;20201;-67
2022/11/23 12:08:49;;;;;;;7.63;1.25;;;;;;;11.77;51.87;95179.91;2091517;28;20210;-67
2022/11/23 12:10:05;;;;;;;11.70;1.77;;;;;;;11.16;53.76;95192.97;2090907;28;20270;-67
2022/11/23 12:11:09;;;;;;;7.07;1.90;;;;;;;12.27;51.12;95189.41;2095890;28;20200;-66
2022/11/23 12:12:15;;;;;;;6.10;1.70;;;;;;;12.58;50.57;95174.84;2095551;28;20231;-65
2022/11/23 12:13:18;;;;;;;4.57;1.80;;;;;;;12.41;51.15;95209.31;2091068;28;20397;-67
2022/11/23 12:14:20;;;;;;;11.57;1.90;;;;;;;11.68;52.04;95203.25;2091060;28;20213;-65
2022/11/23 12:15:39;;;;;;;8.02;2.30;;;;;;;10.76;53.51;95199.16;2091795;28;20235;-67
2022/11/23 12:17:20;;;;;;;5.72;1.55;;;;;;;10.11;55.63;95195.63;2092192;28;20311;-68
2022/11/23 12:18:44;;;;;;;7.97;2.30;;;;;;;11.23;53.75;95194.19;2092263;28;20200;-69
2022/11/23 12:20:03;;;;;;;4.03;1.67;;;;;;;11.31;53.83;95192.81;2089237;28;20219;-67
2022/11/23 12:21:26;;;;;;;10.70;2.38;;;;;;;11.31;52.78;95188.41;2092145;28;20208;-68
2022/11/23 12:22:43;;;;;;;10.05;2.05;;;;;;;11.71;53.37;95198.66;2091254;28;20204;-67
2022/11/23 12:24:13;;;;;;;6.95;2.20;;;;;;;11.75;52.03;95197.47;2092258;28;20287;-66
2022/11/23 12:25:36;;;;;;;7.07;2.35;;;;;;;12.29;51.55;95197.13;2091819;28;20224;-66
2022/11/23 12:26:53;;;;;;;4.97;1.67;;;;;;;12.06;51.38;95195.28;2091414;28;20192;-66
2022/11/23 12:28:15;;;;;;;6.97;2.30;;;;;;;12.48;51.45;95193.97;2091836;28;20196;-66
2022/11/23 12:29:35;;;;;;;4.50;1.83;;;;;;;12.68;50.35;95201.13;2091736;28;20228;-66
2022/11/23 12:30:46;;;;;;;5.43;2.08;;;;;;;10.60;54.29;95201.13;2091793;28;20230;-68
2022/11/23 12:32:25;;;;;;;5.47;2.10;;;;;;;10.64;54.47;95207.84;2092492;28;20561;-64
2022/11/23 12:33:41;;;;;;;8.63;2.00;;;;;;;11.45;53.18;95205.72;2092806;28;20242;-64
2022/11/23 12:35:10;;;;;;;8.10;2.20;;;;;;;10.21;55.57;95198.47;2090426;28;20248;-65
2022/11/23 12:36:24;;;;;;;7.47;1.73;;;;;;;10.25;57.13;95199.94;2091088;28;20243;-64
2022/11/23 12:37:56;;;;;;;10.52;2.88;;;;;;;11.21;54.37;95210.91;2093654;28;20209;-64
2022/11/23 12:39:20;;;;;;;6.72;2.40;;;;;;;11.78;53.12;95191.19;2092110;28;20783;-63
2022/11/23 12:40:36;;;;;;;4.20;1.98;;;;;;;11.91;52.71;95191.97;2092244;28;20292;-65
2022/11/23 12:41:38;;;;;;;7.65;2.42;;;;;;;12.19;52.46;95189.13;2092031;28;20282;-64
2022/11/23 12:42:44;;;;;;;7.00;2.28;;;;;;;11.86;52.84;95183.63;2091812;28;20196;-62
2022/11/23 12:43:55;;;;;;;5.80;2.10;;;;;;;11.46;53.56;95185.66;2092780;28;20216;-64
2022/11/23 12:45:25;;;;;;;4.03;1.90;;;;;;;12.04;53.34;95186.69;2088487;28;20251;-63
2022/11/23 12:46:48;;;;;;;6.35;2.40;;;;;;;11.83;53.47;95190.84;2070338;28;20203;-64
2022/11/23 12:48:11;;;;;;;5.43;2.25;;;;;;;11.72;53.70;95186.41;2092266;28;20235;-63
2022/11/23 12:49:42;;;;;;;6.38;2.25;;;;;;;11.46;54.37;95194.34;2090855;28;20482;-63
2022/11/23 12:51:06;;;;;;;7.35;2.67;;;;;;;11.57;54.51;95194.41;2090686;28;20197;-64
2022/11/23 12:52:32;;;;;;;9.02;2.97;;;;;;;11.63;53.85;95193.16;2090936;28;20235;-63
2022/11/23 12:54:21;;;;;;;6.63;2.50;;;;;;;10.56;56.08;95195.31;2089525;28;20541;-64
2022/11/23 12:55:29;;;;;;;9.82;3.55;;;;;;;11.40;55.52;95185.16;2058283;28;20227;-64
2022/11/23 12:56:50;;;;;;;6.93;2.50;;;;;;;10.89;55.18;95182.66;2058169;28;20867;-65
2022/11/23 12:58:24;;;;;;;6.68;2.17;;;;;;;10.55;56.53;95169.28;2058699;28;20212;-65
2022/11/23 12:59:34;;;;;;;9.02;2.30;;;;;;;10.72;56.86;95166.38;2059310;28;20298;-67
2022/11/23 13:00:44;;;;;;;7.05;2.58;;;;;;;10.47;57.39;95177.63;2057929;28;20203;-67
2022/11/23 13:01:56;;;;;;;7.55;3.45;;;;;;;10.51;57.23;95176.50;2058412;28;20196;-67
2022/11/23 13:02:57;;;;;;;5.25;1.92;;;;;;;10.27;57.84;95182.41;2057778;28;20208;-67
2022/11/23 13:04:13;;;;;;;7.13;2.55;;;;;;;11.06;56.85;95178.88;2059648;28;20238;-66
2022/11/23 13:05:29;;;;;;;4.13;2.05;;;;;;;10.78;56.68;95173.78;2061342;28;20234;-67
2022/11/23 13:06:52;;;;;;;7.65;2.65;;;;;;;10.95;56.30;95167.38;2058632;28;20468;-67
2022/11/23 13:08:37;;;;;;;7.07;2.28;;;;;;;10.72;57.12;95168.16;2059703;28;20306;-67
2022/11/23 13:09:58;;;;;;;8.40;2.50;;;;;;;11.85;54.30;95174.09;2058791;28;20227;-67
2022/11/23 13:11:27;;;;;;;7.15;2.67;;;;;;;11.57;54.79;95165.66;2059393;28;20204;-67
2022/11/23 13:12:37;;;;;;;12.40;2.83;;;;;;;10.84;56.36;95164.69;2060770;28;20223;-66
2022/11/23 13:14:14;;;;;;;7.10;2.38;;;;;;;10.33;57.81;95162.88;2059873;28;20196;-67
2022/11/23 13:15:18;;;;;;;13.10;2.88;;;;;;;10.07;59.08;95165.47;2051125;28;20259;-67
2022/11/23 13:16:43;;;;;;;9.85;2.42;;;;;;;9.99;58.97;95165.13;2060526;28;20567;-67
2022/11/23 13:17:56;;;;;;;8.23;2.40;;;;;;;10.51;57.98;95168.66;2057417;28;20707;-65
2022/11/23 13:19:25;;;;;;;11.20;2.20;;;;;;;9.63;60.13;95177.84;2058357;28;20492;-67
2022/11/23 13:20:41;;;;;;;5.03;1.92;;;;;;;10.50;58.37;95171.38;2057677;28;20234;-65
2022/11/23 13:21:45;;;;;;;5.20;2.35;;;;;;;10.52;58.05;95165.13;2056517;28;20199;-67
2022/11/23 13:22:48;;;;;;;5.78;2.30;;;;;;;10.74;57.85;95163.66;2057174;28;20294;-66
2022/11/23 13:23:49;;;;;;;5.18;2.08;;;;;;;11.26;57.23;95160.00;2059048;28;20206;-66
2022/11/23 13:25:13;;;;;;;7.90;2.40;;;;;;;11.68;55.37;95161.41;2058622;28;20227;-66
2022/11/23 13:26:17;;;;;;;11.40;2.88;;;;;;;11.69;55.34;95153.47;2059472;28;20206;-67
2022/11/23 13:27:27;;;;;;;6.18;2.67;;;;;;;11.55;56.50;95156.25;2061614;28;20393;-66
2022/11/23 13:28:32;;;;;;;7.90;2.35;;;;;;;10.76;57.38;95156.56;2060745;28;20557;-67
2022/11/23 13:29:49;;;;;;;9.82;2.50;;;;;;;11.02;57.85;95153.88;2059021;28;20227;-67
2022/11/23 13:31:15;;;;;;;8.73;2.30;;;;;;;11.20;56.76;95160.44;2091025;28;20208;-66
2022/11/23 13:32:56;;;;;;;7.28;2.15;;;;;;;10.27;58.05;95158.06;2091976;28;20196;-66
2022/11/23 13:34:19;;;;;;;6.25;2.30;;;;;;;10.02;59.36;95151.91;2077686;28;20393;-67
2022/11/23 13:35:20;;;;;;;6.45;2.67;;;;;;;10.69;57.80;95158.75;2076382;28;20853;-66
2022/11/23 13:36:31;;;;;;;6.18;2.30;;;;;;;10.75;58.27;95149.66;2075136;28;20233;-66
2022/11/23 13:37:55;;;;;;;9.35;3.03;;;;;;;10.48;58.33;95139.34;2075328;28;20206;-66